Terminal Aerodrome Forecast
Issued by NWS

Home | Current Version | Previous Version | Text Only | Print | Product List | Glossary On
Versions: 1 2 3 4 5 6 7 8 9 10 11 12 13 14 15
081
FTUS46 KMFR 062340
TAFOTH
TAF
KOTH 062340Z 0700/0724 35020G28KT P6SM SCT250
     FM070400 35015G22KT P6SM BKN015
     FM070600 35012G18KT 5SM BR OVC008
     FM071000 34010KT 3SM BR OVC004
     FM071700 34018G26KT P6SM SCT008 BKN015=

USA.gov is the U.S. government's official web portal to all federal, state and local government web resources and services.